createdAt,value
2023-03-05T00:01:09.154Z,99392.41
2023-03-05T00:03:36.486Z,99393.47
2023-03-05T00:06:03.813Z,99393.38
2023-03-05T00:08:31.379Z,99388.41
2023-03-05T00:11:00.182Z,99394.53
2023-03-05T00:13:27.277Z,99390.94
2023-03-05T00:15:54.081Z,99391.16
2023-03-05T00:18:21.393Z,99388.19
2023-03-05T00:20:48.386Z,99388.09
2023-03-05T00:23:15.558Z,99386.41
2023-03-05T00:25:42.398Z,99385.75
2023-03-05T00:28:09.290Z,99381.28
2023-03-05T00:30:35.935Z,99381.19
2023-03-05T00:33:02.686Z,99382.16
2023-03-05T00:35:29.425Z,99375.13
2023-03-05T00:37:56.232Z,99368.41
2023-03-05T00:40:23.211Z,99376.28
2023-03-05T00:42:50.095Z,99373.50
2023-03-05T00:45:16.944Z,99370.00
2023-03-05T00:47:45.889Z,99363.28
2023-03-05T00:50:12.470Z,99363.47
2023-03-05T00:52:39.116Z,99361.31
2023-03-05T00:55:06.060Z,99357.81
2023-03-05T00:57:33.053Z,99359.44
2023-03-05T00:59:59.733Z,99346.50
2023-03-05T01:02:26.364Z,99350.31
2023-03-05T01:04:52.984Z,99345.06
2023-03-05T01:07:19.591Z,99345.63
2023-03-05T01:09:46.172Z,99346.34
2023-03-05T01:12:12.851Z,99341.06
2023-03-05T01:14:39.609Z,99343.94
2023-03-05T01:17:08.266Z,99349.03
2023-03-05T01:19:34.873Z,99340.69
2023-03-05T01:22:03.847Z,99346.44
2023-03-05T01:24:32.046Z,99334.56
2023-03-05T01:26:59.071Z,99333.53
2023-03-05T01:29:25.686Z,99326.63
2023-03-05T01:31:52.305Z,99334.41
2023-03-05T01:34:19.249Z,99332.22
2023-03-05T01:36:45.944Z,99327.69
2023-03-05T01:39:13.022Z,99323.28
2023-03-05T01:41:39.588Z,99325.06
2023-03-05T01:44:06.172Z,99329.03
2023-03-05T01:46:35.200Z,99321.81
2023-03-05T01:49:27.972Z,99326.34
2023-03-05T01:52:07.558Z,99321.59
2023-03-05T01:54:39.301Z,99316.47
2023-03-05T01:57:16.788Z,99314.97
2023-03-05T01:59:48.541Z,99317.34
2023-03-05T02:02:15.357Z,99311.78
2023-03-05T02:04:46.508Z,99313.06
2023-03-05T02:07:15.786Z,99303.63
2023-03-05T02:09:42.487Z,99309.97
2023-03-05T02:12:12.897Z,99305.38
2023-03-05T02:14:41.294Z,99303.06
2023-03-05T02:17:08.818Z,99301.84
2023-03-05T02:20:16.180Z,99298.63
2023-03-05T02:22:43.151Z,99294.97
2023-03-05T02:25:21.954Z,99289.78
2023-03-05T02:28:00.104Z,99289.63
2023-03-05T02:30:26.896Z,99290.13
2023-03-05T02:32:59.360Z,99282.16
2023-03-05T02:35:27.638Z,99287.09
2023-03-05T02:37:54.430Z,99284.47
2023-03-05T02:40:21.179Z,99277.81
2023-03-05T02:42:49.043Z,99281.06
2023-03-05T02:45:15.896Z,99278.78
2023-03-05T02:47:42.567Z,99281.16
2023-03-05T02:50:12.624Z,99279.81
2023-03-05T02:52:40.508Z,99277.75
2023-03-05T02:55:12.245Z,99269.00
2023-03-05T02:57:40.072Z,99265.41
2023-03-05T03:00:07.239Z,99265.13
2023-03-05T03:02:34.436Z,99261.50
2023-03-05T03:05:01.161Z,99265.56
2023-03-05T03:07:27.865Z,99263.75
2023-03-05T03:09:54.472Z,99259.47
2023-03-05T03:12:21.581Z,99258.69
2023-03-05T03:14:48.268Z,99254.97
2023-03-05T03:17:17.895Z,99252.41
2023-03-05T03:19:45.455Z,99254.13
2023-03-05T03:22:14.458Z,99255.13
2023-03-05T03:24:42.169Z,99248.03
2023-03-05T03:27:09.373Z,99247.41
2023-03-05T03:29:37.563Z,99248.09
2023-03-05T03:32:04.750Z,99246.16
2023-03-05T03:34:31.730Z,99241.31
2023-03-05T03:36:58.327Z,99237.38
2023-03-05T03:39:25.470Z,99230.50
2023-03-05T03:41:53.514Z,99236.72
2023-03-05T03:44:21.668Z,99237.25
2023-03-05T03:46:50.032Z,99227.72
2023-03-05T03:49:17.970Z,99231.97
2023-03-05T03:51:45.015Z,99226.94
2023-03-05T03:54:11.991Z,99227.59
2023-03-05T03:56:38.697Z,99225.00
2023-03-05T03:59:05.488Z,99221.59
2023-03-05T04:01:33.240Z,99213.63
2023-03-05T04:04:00.074Z,99218.19
2023-03-05T04:06:27.027Z,99220.84
2023-03-05T04:08:53.613Z,99214.00
2023-03-05T04:11:20.304Z,99214.66
2023-03-05T04:13:47.840Z,99206.66
2023-03-05T04:16:15.655Z,99202.41
2023-03-05T04:18:42.804Z,99207.06
2023-03-05T04:21:09.791Z,99207.81
2023-03-05T04:23:36.692Z,99200.78
2023-03-05T04:26:03.871Z,99201.59
2023-03-05T04:28:30.568Z,99213.88
2023-03-05T04:30:57.316Z,99215.00
2023-03-05T04:33:23.951Z,99207.78
2023-03-05T04:35:51.027Z,99210.84
2023-03-05T04:38:17.797Z,99213.06
2023-03-05T04:40:45.655Z,99207.97
2023-03-05T04:43:12.379Z,99206.66
2023-03-05T04:45:43.631Z,99197.56
2023-03-05T04:48:11.322Z,99200.31
2023-03-05T04:50:38.233Z,99197.53
2023-03-05T04:53:05.027Z,99203.13
2023-03-05T04:55:31.779Z,99204.69
2023-03-05T04:57:58.563Z,99196.00
2023-03-05T05:00:25.386Z,99206.66
2023-03-05T05:02:52.510Z,99194.16
2023-03-05T05:05:25.386Z,99192.63
2023-03-05T05:07:58.668Z,99193.31
2023-03-05T05:10:26.657Z,99193.63
2023-03-05T05:12:53.872Z,99196.09
2023-03-05T05:15:20.870Z,99186.47
2023-03-05T05:17:48.033Z,99191.63
2023-03-05T05:20:16.382Z,99183.03
2023-03-05T05:22:43.831Z,99185.97
2023-03-05T05:25:10.918Z,99182.44
2023-03-05T05:27:39.293Z,99186.69
2023-03-05T05:30:07.617Z,99181.75
2023-03-05T05:32:34.238Z,99187.66
2023-03-05T05:35:00.978Z,99183.31
2023-03-05T05:37:29.603Z,99172.78
2023-03-05T05:39:56.172Z,99176.34
2023-03-05T05:42:24.836Z,99176.22
2023-03-05T05:44:51.707Z,99168.34
2023-03-05T05:47:18.935Z,99173.81
2023-03-05T05:49:45.621Z,99177.31
2023-03-05T05:52:13.210Z,99180.03
2023-03-05T05:54:39.953Z,99176.47
2023-03-05T05:57:07.263Z,99166.88
2023-03-05T05:59:37.486Z,99161.53
2023-03-05T06:02:07.993Z,99167.38
2023-03-05T06:04:35.760Z,99168.34
2023-03-05T06:07:03.337Z,99167.59
2023-03-05T06:09:30.048Z,99167.69
2023-03-05T06:11:56.615Z,99172.88
2023-03-05T06:14:23.131Z,99170.59
2023-03-05T06:16:49.825Z,99168.00
2023-03-05T06:19:16.714Z,99169.41
2023-03-05T06:21:43.571Z,99173.06
2023-03-05T06:24:10.607Z,99171.91
2023-03-05T06:26:37.265Z,99163.09
2023-03-05T06:29:04.203Z,99170.97
2023-03-05T06:31:31.202Z,99163.09
2023-03-05T06:34:03.275Z,99166.41
2023-03-05T06:36:30.598Z,99160.47
2023-03-05T06:38:58.322Z,99162.69
2023-03-05T06:41:30.395Z,99164.16
2023-03-05T06:44:04.936Z,99163.91
2023-03-05T06:46:34.501Z,99163.84
2023-03-05T06:49:02.462Z,99161.53
2023-03-05T06:51:32.410Z,99166.56
2023-03-05T06:54:14.358Z,99172.50
2023-03-05T06:56:43.743Z,99166.50
2023-03-05T06:59:16.354Z,99173.47
2023-03-05T07:01:44.134Z,99177.03
2023-03-05T07:04:12.411Z,99169.06
2023-03-05T07:06:41.751Z,99166.72
2023-03-05T07:09:10.721Z,99171.66
2023-03-05T07:11:39.135Z,99167.22
2023-03-05T07:14:05.679Z,99169.41
2023-03-05T07:16:33.913Z,99165.22
2023-03-05T07:19:02.996Z,99169.06
2023-03-05T07:21:31.763Z,99170.97
2023-03-05T07:24:01.145Z,99170.47
2023-03-05T07:26:28.618Z,99166.50
2023-03-05T07:28:55.177Z,99159.34
2023-03-05T07:31:27.012Z,99171.28
2023-03-05T07:33:54.251Z,99174.63
2023-03-05T07:36:20.974Z,99169.28
2023-03-05T07:38:47.790Z,99164.97
2023-03-05T07:41:22.087Z,99162.44
2023-03-05T07:43:50.677Z,99165.78
2023-03-05T07:46:19.171Z,99160.22
2023-03-05T07:48:45.908Z,99158.59
2023-03-05T07:51:15.826Z,99149.56
2023-03-05T07:53:43.843Z,99154.97
2023-03-05T07:56:11.092Z,99154.56
2023-03-05T07:58:37.796Z,99157.06
2023-03-05T08:01:04.635Z,99147.28
2023-03-05T08:03:31.372Z,99149.16
2023-03-05T08:05:58.118Z,99154.94
2023-03-05T08:08:24.701Z,99151.16
2023-03-05T08:10:51.348Z,99148.06
2023-03-05T08:13:18.031Z,99147.81
2023-03-05T08:15:46.144Z,99144.53
2023-03-05T08:18:13.819Z,99147.44
2023-03-05T08:20:40.382Z,99140.84
2023-03-05T08:23:07.058Z,99138.06
2023-03-05T08:25:33.678Z,99139.22
2023-03-05T08:28:00.349Z,99136.69
2023-03-05T08:30:27.605Z,99139.63
2023-03-05T08:32:55.575Z,99140.22
2023-03-05T08:35:23.182Z,99133.63
2023-03-05T08:37:49.938Z,99129.16
2023-03-05T08:40:20.269Z,99134.16
2023-03-05T08:42:47.089Z,99128.88
2023-03-05T08:45:14.041Z,99129.47
2023-03-05T08:47:40.809Z,99122.38
2023-03-05T08:50:08.103Z,99126.91
2023-03-05T08:52:34.763Z,99125.50
2023-03-05T08:55:01.519Z,99117.19
2023-03-05T08:57:28.359Z,99121.44
2023-03-05T08:59:57.935Z,99110.00
2023-03-05T09:02:24.642Z,99116.88
2023-03-05T09:04:51.403Z,99114.53
2023-03-05T09:07:18.072Z,99113.91
2023-03-05T09:09:47.762Z,99112.03
2023-03-05T09:12:15.942Z,99105.34
2023-03-05T09:14:42.768Z,99100.06
2023-03-05T09:17:09.557Z,99089.72
2023-03-05T09:19:36.262Z,99095.47
2023-03-05T09:22:02.998Z,99093.69
2023-03-05T09:24:29.752Z,99093.19
2023-03-05T09:27:00.476Z,99084.09
2023-03-05T09:29:27.771Z,99078.44
2023-03-05T09:31:54.793Z,99080.22
2023-03-05T09:34:21.925Z,99081.00
2023-03-05T09:36:48.910Z,99078.84
2023-03-05T09:39:17.014Z,99084.94
2023-03-05T09:42:19.758Z,99076.31
2023-03-05T09:44:55.275Z,99068.84
2023-03-05T09:47:45.019Z,99070.47
2023-03-05T09:50:43.464Z,99057.66
2023-03-05T09:53:28.954Z,99061.84
2023-03-05T09:56:00.638Z,99061.00
2023-03-05T09:58:48.951Z,99061.56
2023-03-05T10:01:23.710Z,99055.06
2023-03-05T10:04:09.678Z,99055.69
2023-03-05T10:06:58.090Z,99047.66
2023-03-05T10:09:51.258Z,99049.69
2023-03-05T10:12:28.021Z,99049.84
2023-03-05T10:15:00.649Z,99049.34
2023-03-05T10:17:55.407Z,99055.03
2023-03-05T10:20:48.555Z,99041.78
2023-03-05T10:23:33.383Z,99049.84
2023-03-05T10:26:20.537Z,99044.63
2023-03-05T10:29:24.744Z,99039.63
2023-03-05T10:32:00.448Z,99041.03
2023-03-05T10:34:57.016Z,99040.53
2023-03-05T10:37:48.519Z,99039.66
2023-03-05T10:40:45.927Z,99035.06
2023-03-05T10:43:31.246Z,99027.97
2023-03-05T10:45:59.423Z,99024.03
2023-03-05T10:48:34.723Z,99028.31
2023-03-05T10:51:10.685Z,99026.31
2023-03-05T10:53:50.778Z,99023.00
2023-03-05T10:56:21.421Z,99020.41
2023-03-05T10:58:52.830Z,99018.97
2023-03-05T11:01:31.977Z,99015.00
2023-03-05T11:04:06.126Z,99016.13
2023-03-05T11:06:43.115Z,99016.06
2023-03-05T11:09:15.657Z,99004.63
2023-03-05T11:11:42.342Z,99004.53
2023-03-05T11:14:30.789Z,99002.84
2023-03-05T11:16:57.770Z,99006.16
2023-03-05T11:19:36.862Z,98996.47
2023-03-05T11:22:17.086Z,99001.38
2023-03-05T11:24:46.771Z,98992.25
2023-03-05T11:27:35.213Z,98994.47
2023-03-05T11:30:19.131Z,98991.84
2023-03-05T11:32:47.926Z,98984.66
2023-03-05T11:35:36.110Z,98982.09
2023-03-05T11:38:04.977Z,98979.34
2023-03-05T11:40:35.849Z,98978.66
2023-03-05T11:43:04.607Z,98969.91
2023-03-05T11:45:33.152Z,98973.53
2023-03-05T11:48:20.003Z,98965.38
2023-03-05T11:50:53.105Z,98962.25
2023-03-05T11:53:38.844Z,98964.38
2023-03-05T11:56:18.736Z,98953.19
2023-03-05T11:58:54.703Z,98943.59
2023-03-05T12:01:27.671Z,98945.63
2023-03-05T12:03:55.588Z,98939.78
2023-03-05T12:06:47.136Z,98927.28
2023-03-05T12:09:23.787Z,98922.06
2023-03-05T12:12:16.776Z,98931.78
2023-03-05T12:15:08.217Z,98923.28
2023-03-05T12:17:58.364Z,98911.22
2023-03-05T12:20:35.752Z,98898.56
2023-03-05T12:23:02.696Z,98902.28
2023-03-05T12:25:53.198Z,98902.13
2023-03-05T12:28:28.895Z,98903.09
2023-03-05T12:30:59.347Z,98899.16
2023-03-05T12:33:38.558Z,98892.84
2023-03-05T12:36:17.631Z,98890.75
2023-03-05T12:38:58.288Z,98889.22
2023-03-05T12:41:28.280Z,98885.53
2023-03-05T12:44:21.155Z,98875.03
2023-03-05T12:47:13.320Z,98874.19
2023-03-05T12:49:48.414Z,98871.09
2023-03-05T12:52:28.485Z,98868.59
2023-03-05T12:55:54.268Z,98861.25
2023-03-05T12:58:40.840Z,98865.84
2023-03-05T13:01:26.949Z,98858.59
2023-03-05T13:04:54.912Z,98856.50
2023-03-05T13:07:46.198Z,98864.94
2023-03-05T13:10:27.694Z,98855.97
2023-03-05T13:13:04.714Z,98861.50
2023-03-05T13:18:46.109Z,98850.81
2023-03-05T13:21:21.305Z,98846.13
2023-03-05T13:24:05.296Z,98847.69
2023-03-05T13:26:46.085Z,98850.13
2023-03-05T13:29:15.694Z,98845.94
2023-03-05T13:32:27.215Z,98843.16
2023-03-05T13:35:18.250Z,98839.28
2023-03-05T13:38:36.236Z,98832.00
2023-03-05T13:41:43.664Z,98828.06
2023-03-05T13:44:21.817Z,98826.88
2023-03-05T13:46:48.285Z,98822.97
2023-03-05T13:49:22.491Z,98822.50
2023-03-05T13:52:00.121Z,98813.22
2023-03-05T13:54:28.104Z,98821.06
2023-03-05T13:57:02.377Z,98805.47
2023-03-05T13:59:35.028Z,98807.44
2023-03-05T14:02:05.855Z,98802.09
2023-03-05T14:04:41.493Z,98798.25
2023-03-05T14:07:26.793Z,98799.13
2023-03-05T14:09:53.786Z,98789.69
2023-03-05T14:12:35.511Z,98781.38
2023-03-05T14:15:02.618Z,98780.31
2023-03-05T14:17:35.263Z,98786.25
2023-03-05T14:20:08.112Z,98776.88
2023-03-05T14:22:37.294Z,98771.81
2023-03-05T14:25:06.461Z,98774.91
2023-03-05T14:27:47.421Z,98766.91
2023-03-05T14:30:17.303Z,98756.91
2023-03-05T14:32:44.810Z,98763.81
2023-03-05T14:35:20.242Z,98764.44
2023-03-05T14:37:50.174Z,98766.88
2023-03-05T14:40:21.913Z,98766.63
2023-03-05T14:42:57.287Z,98763.94
2023-03-05T14:45:26.946Z,98755.81
2023-03-05T14:47:55.011Z,98748.06
2023-03-05T14:50:34.727Z,98743.97
2023-03-05T14:53:15.545Z,98744.22
2023-03-05T14:55:45.790Z,98739.88
2023-03-05T14:58:15.775Z,98733.63
2023-03-05T15:00:43.621Z,98734.59
2023-03-05T15:03:15.556Z,98736.81
2023-03-05T15:05:43.766Z,98724.16
2023-03-05T15:08:17.320Z,98729.91
2023-03-05T15:10:44.144Z,98725.34
2023-03-05T15:13:13.684Z,98713.31
2023-03-05T15:15:42.245Z,98715.44
2023-03-05T15:18:17.365Z,98715.31
2023-03-05T15:20:44.658Z,98714.34
2023-03-05T15:23:12.929Z,98710.63
2023-03-05T15:25:39.975Z,98709.75
2023-03-05T15:28:06.775Z,98713.41
2023-03-05T15:30:39.244Z,98703.94
2023-03-05T15:33:09.504Z,98698.34
2023-03-05T15:35:36.902Z,98689.25
2023-03-05T15:38:03.991Z,98685.81
2023-03-05T15:40:30.582Z,98683.44
2023-03-05T15:42:59.048Z,98683.69
2023-03-05T15:45:26.606Z,98677.69
2023-03-05T15:47:53.547Z,98672.19
2023-03-05T15:50:21.568Z,98667.72
2023-03-05T15:52:48.731Z,98669.38
2023-03-05T15:55:15.905Z,98670.75
2023-03-05T15:57:45.195Z,98666.91
2023-03-05T16:00:13.996Z,98666.94
2023-03-05T16:02:40.601Z,98667.00
2023-03-05T16:05:08.252Z,98663.81
2023-03-05T16:07:37.159Z,98655.81
2023-03-05T16:10:04.640Z,98658.09
2023-03-05T16:12:40.534Z,98654.53
2023-03-05T16:15:13.470Z,98654.19
2023-03-05T16:17:43.552Z,98652.91
2023-03-05T16:20:12.077Z,98646.59
2023-03-05T16:22:38.716Z,98649.50
2023-03-05T16:25:05.838Z,98646.59
2023-03-05T16:27:32.421Z,98647.41
2023-03-05T16:29:59.066Z,98641.78
2023-03-05T16:32:25.823Z,98643.44
2023-03-05T16:34:52.472Z,98639.38
2023-03-05T16:37:21.388Z,98642.03
2023-03-05T16:39:48.295Z,98640.22
2023-03-05T16:42:15.077Z,98639.66
2023-03-05T16:44:43.057Z,98642.63
2023-03-05T16:47:12.201Z,98644.13
2023-03-05T16:49:39.487Z,98639.91
2023-03-05T16:52:18.309Z,98646.50
2023-03-05T16:54:46.278Z,98645.56
2023-03-05T16:57:12.810Z,98643.38
2023-03-05T16:59:39.417Z,98645.25
2023-03-05T17:02:06.101Z,98649.38
2023-03-05T17:04:32.930Z,98639.13
2023-03-05T17:06:59.613Z,98641.16
2023-03-05T17:09:26.169Z,98644.88
2023-03-05T17:11:53.660Z,98642.44
2023-03-05T17:14:20.913Z,98639.72
2023-03-05T17:16:47.613Z,98644.19
2023-03-05T17:19:14.565Z,98638.34
2023-03-05T17:21:42.456Z,98642.34
2023-03-05T17:24:10.180Z,98638.28
2023-03-05T17:26:37.185Z,98636.03
2023-03-05T17:29:04.849Z,98631.13
2023-03-05T17:31:31.612Z,98633.19
2023-03-05T17:33:58.430Z,98626.16
2023-03-05T17:36:25.533Z,98634.94
2023-03-05T17:38:52.789Z,98640.63
2023-03-05T17:41:19.843Z,98631.19
2023-03-05T17:43:46.426Z,98633.19
2023-03-05T17:46:13.483Z,98636.41
2023-03-05T17:48:40.306Z,98636.03
2023-03-05T17:51:09.725Z,98644.66
2023-03-05T17:53:38.844Z,98644.09
2023-03-05T17:56:10.212Z,98644.34
2023-03-05T17:58:37.216Z,98637.25
2023-03-05T18:01:05.971Z,98636.22
2023-03-05T18:03:32.580Z,98632.19
2023-03-05T18:05:59.207Z,98630.78
2023-03-05T18:08:25.727Z,98630.66
2023-03-05T18:10:53.281Z,98632.03
2023-03-05T18:13:19.799Z,98630.44
2023-03-05T18:15:47.755Z,98627.19
2023-03-05T18:18:18.725Z,98623.16
2023-03-05T18:23:54.568Z,98610.34
2023-03-05T18:26:21.117Z,98623.56
2023-03-05T18:28:47.637Z,98607.38
2023-03-05T18:31:14.488Z,98616.50
2023-03-05T18:33:42.214Z,98618.06
2023-03-05T18:36:10.721Z,98604.44
2023-03-05T18:38:38.463Z,98611.09
2023-03-05T18:41:06.184Z,98595.75
2023-03-05T18:43:32.786Z,98598.59
2023-03-05T18:46:04.740Z,98598.28
2023-03-05T18:48:31.290Z,98593.50
2023-03-05T18:50:57.823Z,98593.25
2023-03-05T18:53:24.414Z,98597.06
2023-03-05T18:55:52.645Z,98600.28
2023-03-05T18:58:19.552Z,98599.38
2023-03-05T19:00:47.059Z,98586.03
2023-03-05T19:03:14.903Z,98594.91
2023-03-05T19:05:42.206Z,98599.63
2023-03-05T19:08:09.175Z,98591.28
2023-03-05T19:10:35.796Z,98591.56
2023-03-05T19:13:39.950Z,98593.00
2023-03-05T19:16:40.402Z,98587.38
2023-03-05T19:19:23.054Z,98590.97
2023-03-05T19:21:54.924Z,98585.91
2023-03-05T19:24:26.903Z,98581.03
2023-03-05T19:26:55.777Z,98585.75
2023-03-05T19:29:24.033Z,98582.00
2023-03-05T19:31:51.461Z,98575.81
2023-03-05T19:34:18.553Z,98576.50
2023-03-05T19:36:45.051Z,98581.31
2023-03-05T19:39:11.717Z,98573.66
2023-03-05T19:41:38.215Z,98572.91
2023-03-05T19:44:05.615Z,98567.88
2023-03-05T19:46:32.613Z,98566.09
2023-03-05T19:48:59.319Z,98561.91
2023-03-05T19:51:27.016Z,98564.91
2023-03-05T19:53:53.824Z,98565.28
2023-03-05T19:56:20.765Z,98563.13
2023-03-05T19:58:48.893Z,98559.31
2023-03-05T20:01:20.919Z,98552.03
2023-03-05T20:03:51.706Z,98551.53
2023-03-05T20:06:18.274Z,98548.25
2023-03-05T20:08:44.822Z,98549.69
2023-03-05T20:11:13.430Z,98547.31
2023-03-05T20:13:40.692Z,98546.94
2023-03-05T20:16:26.092Z,98538.81
2023-03-05T20:18:54.826Z,98544.69
2023-03-05T20:21:33.342Z,98546.63
2023-03-05T20:24:03.705Z,98546.44
2023-03-05T20:26:32.783Z,98534.91
2023-03-05T20:28:59.467Z,98539.53
2023-03-05T20:31:27.799Z,98534.06
2023-03-05T20:33:56.194Z,98531.09
2023-03-05T20:36:24.093Z,98535.53
2023-03-05T20:38:50.663Z,98531.28
2023-03-05T20:41:20.673Z,98526.22
2023-03-05T20:43:49.528Z,98529.59
2023-03-05T20:46:26.427Z,98525.06
2023-03-05T20:48:59.001Z,98518.50
2023-03-05T20:51:37.801Z,98516.38
2023-03-05T20:54:07.047Z,98519.91
2023-03-05T20:56:34.924Z,98518.63
2023-03-05T20:59:04.508Z,98512.41
2023-03-05T21:01:33.325Z,98507.84
2023-03-05T21:04:01.016Z,98505.16
2023-03-05T21:06:28.286Z,98507.69
2023-03-05T21:08:55.678Z,98501.72
2023-03-05T21:11:22.532Z,98500.16
2023-03-05T21:13:49.074Z,98496.66
2023-03-05T21:16:19.479Z,98495.16
2023-03-05T21:18:46.142Z,98498.41
2023-03-05T21:21:12.687Z,98502.00
2023-03-05T21:23:39.192Z,98497.72
2023-03-05T21:26:05.897Z,98497.91
